Time;durP1;ratioP1;P1;durP2;ratioP2;P2;SDS_P1;SDS_P2;PMS_P1;PMS_P2;Temp;Humidity;BMP_temperature;BMP_pressure;BME280_temperature;BME280_humidity;BME280_pressure;Samples;Min_cycle;Max_cycle;Signal;HPM_P1;HPM_P2
2022/04/17 00:00:10;;;;;;;;;4.50;4.50;;;;;14.36;45.73;102037.63;5058367;28;45950;-83
2022/04/17 00:02:36;;;;;;;;;5.50;5.25;;;;;14.27;44.86;102034.59;5049858;28;45927;-83
2022/04/17 00:05:03;;;;;;;;;7.00;6.00;;;;;14.06;44.67;101986.16;5042584;28;45459;-83
2022/04/17 00:07:29;;;;;;;;;6.00;6.00;;;;;14.23;45.16;102022.09;5047626;28;45513;-82
2022/04/17 00:09:55;;;;;;;;;5.00;4.75;;;;;14.06;45.42;101986.16;5053400;28;45780;-82
2022/04/17 00:12:23;;;;;;;;;5.00;5.00;;;;;13.98;44.58;101980.56;5050591;28;45714;-82
2022/04/17 00:14:48;;;;;;;;;4.25;4.25;;;;;14.24;45.01;102029.22;5069674;28;45554;-83
2022/04/17 00:17:14;;;;;;;;;5.50;5.00;;;;;13.79;44.87;101949.84;5064842;28;46143;-83
2022/04/17 00:19:39;;;;;;;;;4.25;4.25;;;;;14.05;45.05;102002.88;5067748;28;47986;-83
2022/04/17 00:22:04;;;;;;;;;4.75;4.25;;;;;13.88;44.64;101976.63;5069015;28;45756;-84
2022/04/17 00:24:30;;;;;;;;;4.50;4.00;;;;;13.90;44.61;101985.53;5068423;28;45596;-83
2022/04/17 00:26:57;;;;;;;;;5.75;5.75;;;;;13.73;44.34;101952.22;5069721;28;45754;-83
2022/04/17 00:29:22;;;;;;;;;4.00;4.00;;;;;13.90;44.42;101982.91;5061885;27;46733;-84
2022/04/17 00:31:47;;;;;;;;;5.25;5.25;;;;;13.79;44.66;101973.66;5050174;28;45944;-83
2022/04/17 00:34:13;;;;;;;;;4.00;4.00;;;;;14.07;45.40;102024.97;5061887;27;45390;-83
2022/04/17 00:36:38;;;;;;;;;5.75;4.75;;;;;13.57;45.58;101940.13;5069467;28;45367;-83
2022/04/17 00:39:03;;;;;;;;;5.33;5.00;;;;;13.92;44.54;102014.66;5068792;28;45625;-82
2022/04/17 00:41:28;;;;;;;;;3.75;3.75;;;;;13.54;45.30;101950.56;5068990;28;45441;-83
2022/04/17 00:43:54;;;;;;;;;4.00;4.00;;;;;13.71;45.43;101984.72;5051002;28;45613;-82
2022/04/17 00:46:19;;;;;;;;;5.00;5.00;;;;;13.74;46.07;101998.94;5050534;28;45963;-83
2022/04/17 00:48:45;;;;;;;;;3.00;3.00;;;;;13.53;45.33;101964.59;5065361;28;46684;-83
2022/04/17 00:51:11;;;;;;;;;4.00;4.00;;;;;13.67;44.88;101995.16;5052210;28;45681;-82
2022/04/17 00:53:37;;;;;;;;;4.00;4.00;;;;;13.33;45.54;101942.63;5051897;28;45527;-83
2022/04/17 00:56:06;;;;;;;;;6.00;4.00;;;;;13.39;45.85;101955.19;5034283;28;45548;-82
2022/04/17 00:58:32;;;;;;;;;5.75;5.75;;;;;13.27;46.51;101945.03;5052884;27;46787;-84
2022/04/17 01:00:58;;;;;;;;;4.75;4.75;;;;;13.46;46.08;101983.69;5078854;27;45386;-83
2022/04/17 01:03:23;;;;;;;;;5.00;5.00;;;;;13.55;45.79;102001.69;5072021;28;45520;-84
2022/04/17 01:05:49;;;;;;;;;5.50;5.00;;;;;13.26;45.59;101964.34;5069583;27;45483;-84
2022/04/17 01:08:17;;;;;;;;;5.00;4.25;;;;;13.50;46.14;102005.88;5090248;27;45467;-83
2022/04/17 01:10:43;;;;;;;;;5.75;4.25;;;;;13.48;45.54;102002.22;5064177;28;45355;-83
2022/04/17 01:13:08;;;;;;;;;3.75;3.75;;;;;13.30;46.33;101975.94;5071824;28;45844;-82
2022/04/17 01:15:37;;;;;;;;;5.25;5.25;;;;;13.32;45.08;101971.63;5071832;28;45473;-83
2022/04/17 01:18:06;;;;;;;;;5.00;5.00;;;;;13.04;45.64;101927.25;5062217;28;48394;-83
2022/04/17 01:20:31;;;;;;;;;5.00;4.25;;;;;13.08;45.64;101929.19;5090079;27;45996;-84
2022/04/17 01:28:27;;;;;;;;;5.00;5.00;;;;;13.30;45.72;101990.06;5091900;27;45423;-83
2022/04/17 01:30:56;;;;;;;;;3.75;3.75;;;;;13.03;45.86;101947.47;5076122;27;45585;-83
2022/04/17 01:33:23;;;;;;;;;4.00;4.00;;;;;12.88;45.99;101923.94;5073256;27;45722;-83
2022/04/17 01:35:49;;;;;;;;;3.00;3.00;;;;;12.76;45.88;101914.56;5073121;27;45747;-84
2022/04/17 01:38:15;;;;;;;;;5.50;5.00;;;;;12.88;45.91;101941.53;5044457;28;47401;-83
2022/04/17 01:40:41;;;;;;;;;5.00;4.00;;;;;13.05;46.43;101968.63;5072629;27;46160;-82
2022/04/17 01:43:09;;;;;;;;;4.00;4.00;;;;;13.10;46.75;101982.94;5071789;28;45889;-83
2022/04/17 01:45:35;;;;;;;;;4.50;4.50;;;;;12.97;46.93;101964.78;5071846;28;45509;-82
2022/04/17 01:48:00;;;;;;;;;4.00;4.00;;;;;12.60;46.25;101918.28;5065167;27;46254;-81
2022/04/17 01:50:27;;;;;;;;;4.00;4.00;;;;;12.91;45.99;101962.78;5064553;27;45905;-83
2022/04/17 01:52:53;;;;;;;;;6.25;5.75;;;;;12.76;46.36;101944.53;5066812;27;45547;-83
2022/04/17 01:55:18;;;;;;;;;5.00;3.25;;;;;12.68;45.89;101924.81;5069698;27;45461;-83
2022/04/17 01:57:44;;;;;;;;;5.00;4.75;;;;;12.91;45.74;101976.88;5064880;27;46028;-83
2022/04/17 02:00:10;;;;;;;;;5.00;4.00;;;;;12.65;46.15;101935.19;5048512;28;45395;-83
2022/04/17 02:02:36;;;;;;;;;4.25;4.25;;;;;12.54;46.28;101918.00;5047001;28;45540;-83
2022/04/17 02:05:01;;;;;;;;;4.00;4.00;;;;;12.86;45.19;101991.59;5060560;27;45704;-82
2022/04/17 02:07:26;;;;;;;;;4.50;3.75;;;;;12.66;45.23;101939.66;5071131;28;45473;-82
2022/04/17 02:09:52;;;;;;;;;5.00;4.75;;;;;12.66;45.17;101950.22;5071411;28;45366;-82
2022/04/17 02:12:17;;;;;;;;;4.00;3.25;;;;;12.53;45.58;101918.84;5069945;28;45738;-83
2022/04/17 02:14:42;;;;;;;;;4.00;4.00;;;;;12.51;46.41;101917.84;5070292;28;45603;-82
2022/04/17 02:17:08;;;;;;;;;4.75;4.25;;;;;12.67;46.38;101957.28;5071417;28;46810;-82
2022/04/17 02:19:33;;;;;;;;;5.00;5.00;;;;;12.46;46.21;101925.53;5070064;28;45725;-82
2022/04/17 02:21:58;;;;;;;;;4.25;4.25;;;;;12.50;45.99;101931.88;5071418;28;45794;-82
2022/04/17 02:24:23;;;;;;;;;6.75;5.50;;;;;12.40;45.81;101912.09;5052749;28;45471;-83
2022/04/17 02:26:49;;;;;;;;;6.00;5.67;;;;;12.34;46.18;101907.44;5053224;28;46941;-81
2022/04/17 02:29:14;;;;;;;;;5.00;5.00;;;;;12.27;46.64;101896.56;5069616;28;45432;-82
2022/04/17 02:31:40;;;;;;;;;4.25;4.00;;;;;12.24;46.57;101891.13;5059463;27;45932;-82
2022/04/17 02:34:07;;;;;;;;;8.00;6.00;;;;;12.18;46.71;101890.88;5076341;27;45691;-82
2022/04/17 02:36:32;;;;;;;;;5.00;5.00;;;;;12.38;46.52;101933.13;5068085;28;46351;-81
2022/04/17 02:38:58;;;;;;;;;7.00;4.00;;;;;12.26;46.58;101902.66;5079354;27;45473;-82
2022/04/17 02:41:23;;;;;;;;;4.50;3.50;;;;;12.37;46.74;101926.06;5090774;27;45795;-82
2022/04/17 02:43:49;;;;;;;;;5.00;4.50;;;;;12.37;46.42;101936.59;5091515;27;45470;-83
2022/04/17 02:47:42;;;;;;;;;3.50;3.50;;;;;12.15;46.28;101899.50;5091153;27;46135;-81
2022/04/17 02:49:00;;;;;;;;;5.00;5.00;;;;;12.05;46.71;101884.09;5084174;27;45413;-83
2022/04/17 02:51:25;;;;;;;;;1.00;1.00;;;;;12.10;46.59;101894.03;5087435;27;45436;-82
2022/04/17 02:53:51;;;;;;;;;5.25;5.25;;;;;12.04;46.66;101892.84;5091388;27;45440;-83
2022/04/17 02:56:16;;;;;;;;;5.67;5.00;;;;;12.05;45.87;101887.66;5071700;27;46934;-83
2022/04/17 02:58:41;;;;;;;;;5.00;5.00;;;;;11.90;45.39;101867.59;5091026;27;45478;-82
2022/04/17 03:06:34;;;;;;;;;5.25;5.25;;;;;12.07;45.80;101895.66;5070419;28;45482;-82
2022/04/17 03:08:59;;;;;;;;;5.25;4.75;;;;;11.78;45.80;101847.72;5070330;28;45468;-81
2022/04/17 03:11:25;;;;;;;;;4.00;4.00;;;;;11.83;45.89;101856.75;5068372;28;45877;-82
2022/04/17 03:13:52;;;;;;;;;4.00;4.00;;;;;12.06;46.28;101899.97;5070720;28;45520;-82
2022/04/17 03:16:17;;;;;;;;;4.00;4.00;;;;;11.84;45.55;101861.19;5070399;28;46746;-82
2022/04/17 03:18:43;;;;;;;;;4.00;4.00;;;;;12.08;45.64;101905.34;5052464;28;45328;-83
2022/04/17 03:21:08;;;;;;;;;4.00;4.00;;;;;12.15;45.15;101912.69;5051943;28;45823;-82
2022/04/17 03:23:33;;;;;;;;;4.00;4.00;;;;;12.17;45.60;101925.94;5068977;28;45362;-81
2022/04/17 03:25:59;;;;;;;;;4.00;4.00;;;;;11.88;45.37;101865.78;5069057;28;47092;-82
2022/04/17 03:28:24;;;;;;;;;6.00;6.00;;;;;11.80;45.07;101851.31;5058398;28;45640;-82
2022/04/17 03:30:50;;;;;;;;;4.75;4.00;;;;;11.80;45.62;101859.22;5066627;27;45630;-83
2022/04/17 03:33:15;;;;;;;;;4.00;4.00;;;;;11.84;44.95;101869.09;5090526;27;45393;-82
2022/04/17 03:35:41;;;;;;;;;4.00;4.00;;;;;11.94;45.52;101888.88;5070854;27;46666;-82
2022/04/17 03:38:07;;;;;;;;;4.00;4.00;;;;;11.74;45.75;101858.03;5069576;28;45833;-81
2022/04/17 03:40:32;;;;;;;;;4.00;3.75;;;;;11.68;46.06;101857.75;5052037;28;45587;-82
2022/04/17 03:42:58;;;;;;;;;4.50;4.50;;;;;11.66;46.18;101849.75;5069892;28;45379;-82
2022/04/17 03:45:24;;;;;;;;;5.25;4.50;;;;;11.57;45.77;101847.56;5069699;28;45474;-83
2022/04/17 03:47:49;;;;;;;;;3.25;3.00;;;;;11.55;46.12;101851.88;5061414;28;45640;-83
2022/04/17 03:50:14;;;;;;;;;3.00;3.00;;;;;11.60;46.12;101863.53;5054016;28;45750;-82
2022/04/17 03:52:42;;;;;;;;;5.00;5.00;;;;;11.51;45.98;101863.06;5069812;28;45718;-82
2022/04/17 03:55:08;;;;;;;;;5.00;5.00;;;;;11.72;46.36;101904.44;5069326;28;46702;-82
2022/04/17 03:57:34;;;;;;;;;5.75;4.50;;;;;11.54;46.20;101875.50;5068008;28;45493;-82
2022/04/17 03:59:59;;;;;;;;;4.00;4.00;;;;;11.57;46.25;101899.31;5033845;28;46028;-81
2022/04/17 04:02:28;;;;;;;;;5.00;5.00;;;;;11.32;46.91;101856.00;5049474;28;45531;-83
2022/04/17 04:04:53;;;;;;;;;5.50;3.25;;;;;11.36;46.70;101888.66;5049401;28;45518;-82
2022/04/17 04:07:19;;;;;;;;;4.75;4.75;;;;;11.28;46.83;101876.81;5047889;28;45766;-82
2022/04/17 04:09:44;;;;;;;;;4.75;4.00;;;;;11.28;47.51;101876.81;5049727;28;45512;-81
2022/04/17 04:12:09;;;;;;;;;5.00;5.00;;;;;11.13;46.69;101847.13;5049187;28;45774;-82
2022/04/17 04:14:35;;;;;;;;;4.00;4.00;;;;;11.18;47.38;101853.50;5049549;28;46924;-82
2022/04/17 04:17:00;;;;;;;;;6.00;6.00;;;;;11.12;47.26;101840.97;5049901;28;45761;-82
2022/04/17 04:19:25;;;;;;;;;4.00;4.00;;;;;11.23;47.03;101871.38;5047971;28;45544;-82
2022/04/17 04:21:51;;;;;;;;;5.50;5.00;;;;;11.31;47.68;101891.06;5051978;27;45493;-83
2022/04/17 04:24:19;;;;;;;;;6.00;6.00;;;;;10.98;47.41;101831.47;5079832;27;45497;-81
2022/04/17 04:28:32;;;;;;;;;5.00;4.00;;;;;11.08;47.31;101865.31;5073144;28;45565;-82
2022/04/17 04:29:31;;;;;;;;;4.75;4.75;;;;;11.01;47.46;101852.69;5071633;27;45411;-82
2022/04/17 04:31:57;;;;;;;;;5.00;5.00;;;;;11.18;46.98;101888.66;5054797;28;45839;-82
2022/04/17 04:34:22;;;;;;;;;6.00;4.25;;;;;11.15;47.86;101884.97;5072533;28;47217;-81
2022/04/17 04:36:48;;;;;;;;;4.67;4.00;;;;;10.70;48.23;101806.44;5073543;28;45598;-81
2022/04/17 04:39:13;;;;;;;;;4.00;3.33;;;;;10.74;47.52;101820.66;5054409;28;45489;-82
2022/04/17 04:41:38;;;;;;;;;5.33;5.00;;;;;10.76;47.38;101837.38;5079342;27;45379;-81
2022/04/17 04:44:04;;;;;;;;;5.00;5.00;;;;;10.79;47.71;101854.22;5091551;27;47119;-83
2022/04/17 04:46:29;;;;;;;;;5.00;4.00;;;;;10.82;47.95;101866.63;5074202;27;45953;-81
2022/04/17 04:51:38;;;;;;;;;4.25;4.25;;;;;10.85;47.14;101869.41;5072310;28;45402;-83
2022/04/17 04:54:07;;;;;;;;;6.00;6.00;;;;;10.78;47.47;101849.78;5070714;28;47438;-82
2022/04/17 04:56:32;;;;;;;;;6.50;6.25;;;;;11.04;47.05;101889.69;5072221;28;45520;-82
2022/04/17 04:58:57;;;;;;;;;4.75;4.00;;;;;10.97;46.97;101875.28;5072625;28;45497;-82
2022/04/17 05:01:23;;;;;;;;;4.00;4.00;;;;;11.10;47.43;101905.78;5072269;28;45878;-83
2022/04/17 05:03:48;;;;;;;;;4.67;4.67;;;;;10.73;47.47;101845.09;5072503;28;46294;-82
2022/04/17 05:06:13;;;;;;;;;6.00;5.00;;;;;10.69;47.46;101849.31;5070898;28;45797;-82
2022/04/17 05:08:39;;;;;;;;;4.75;4.25;;;;;10.84;47.74;101891.28;5072457;28;46237;-82
2022/04/17 05:11:05;;;;;;;;;5.25;5.25;;;;;10.67;48.00;101864.09;5072729;28;45662;-83
2022/04/17 05:13:30;;;;;;;;;6.25;6.25;;;;;10.58;47.10;101856.63;5072236;28;46688;-82
2022/04/17 05:15:56;;;;;;;;;5.25;5.00;;;;;10.68;47.32;101860.63;5072535;28;45500;-84
2022/04/17 05:18:22;;;;;;;;;5.00;5.00;;;;;10.71;47.16;101863.44;5072176;28;46148;-82
2022/04/17 05:20:47;;;;;;;;;4.75;4.75;;;;;10.85;48.06;101906.25;5074252;27;45493;-83
2022/04/17 05:23:18;;;;;;;;;7.00;6.00;;;;;10.68;48.07;101867.63;5053122;28;47091;-82
2022/04/17 05:25:44;;;;;;;;;6.00;6.00;;;;;10.95;47.76;101926.94;5069801;27;45652;-82
2022/04/17 05:28:10;;;;;;;;;5.00;5.00;;;;;10.91;47.19;101921.44;5091923;27;45764;-82
2022/04/17 05:30:35;;;;;;;;;4.00;4.00;;;;;10.80;47.31;101897.22;5092631;27;45460;-82
2022/04/17 05:33:01;;;;;;;;;5.50;5.25;;;;;10.53;47.08;101844.06;5092675;27;45826;-82
2022/04/17 05:35:26;;;;;;;;;4.75;4.00;;;;;10.96;47.34;101912.94;5091414;27;45521;-82
2022/04/17 05:37:51;;;;;;;;;5.00;5.00;;;;;10.68;47.63;101863.28;5090999;27;45401;-82
2022/04/17 05:40:17;;;;;;;;;5.00;4.50;;;;;10.94;46.97;101897.94;5092292;27;45617;-82
2022/04/17 05:42:42;;;;;;;;;5.33;5.33;;;;;10.94;47.36;101898.81;5091789;27;45457;-83
2022/04/17 05:45:08;;;;;;;;;4.50;4.00;;;;;10.92;47.06;101899.56;5073758;27;45419;-83
2022/04/17 05:47:34;;;;;;;;;5.00;4.25;;;;;10.88;47.60;101873.91;5092599;27;45670;-82
2022/04/17 05:50:00;;;;;;;;;4.75;4.50;;;;;11.15;47.26;101916.53;5076743;27;45475;-82
2022/04/17 05:52:26;;;;;;;;;5.00;5.00;;;;;10.92;47.74;101878.50;5051466;28;48321;-83
2022/04/17 05:54:51;;;;;;;;;6.00;6.00;;;;;11.00;47.87;101887.72;5071982;28;45625;-83
2022/04/17 05:57:17;;;;;;;;;5.00;4.50;;;;;10.92;47.84;101868.00;5071675;28;45514;-83
2022/04/17 05:59:42;;;;;;;;;7.00;6.75;;;;;11.03;47.93;101887.84;5070750;28;45411;-83
2022/04/17 06:02:11;;;;;;;;;5.00;4.25;;;;;10.94;47.82;101863.75;5071743;28;45508;-82
2022/04/17 06:04:37;;;;;;;;;5.00;4.75;;;;;10.75;46.36;101825.06;5071724;28;45471;-83
2022/04/17 06:07:02;;;;;;;;;5.00;5.00;;;;;11.04;46.67;101866.91;5072122;28;45708;-82
2022/04/17 06:09:28;;;;;;;;;5.00;5.00;;;;;11.01;47.11;101858.84;5070074;28;45953;-82
2022/04/17 06:11:53;;;;;;;;;7.00;6.00;;;;;10.97;47.23;101845.47;5072003;28;45516;-83
2022/04/17 06:14:18;;;;;;;;;5.00;5.00;;;;;11.13;46.70;101869.06;5071306;28;45362;-82
2022/04/17 06:16:44;;;;;;;;;6.00;5.00;;;;;11.23;45.98;101884.53;5072465;27;45446;-83
2022/04/17 06:19:09;;;;;;;;;5.00;5.00;;;;;11.47;46.71;101918.13;5065632;27;45300;-83
2022/04/17 06:21:36;;;;;;;;;6.00;5.00;;;;;11.59;46.21;101930.19;5091753;27;46386;-84
2022/04/17 06:24:02;;;;;;;;;5.00;5.00;;;;;11.39;46.20;101886.19;5076159;27;46000;-82
2022/04/17 06:26:27;;;;;;;;;7.25;7.00;;;;;11.41;46.18;101889.78;5070936;28;45291;-83
2022/04/17 06:28:52;;;;;;;;;6.75;5.50;;;;;11.48;45.24;101888.38;5068046;28;45438;-82
2022/04/17 06:31:18;;;;;;;;;8.00;7.75;;;;;11.40;44.70;101856.41;5070617;28;45671;-83
2022/04/17 06:33:43;;;;;;;;;6.00;5.00;;;;;11.53;44.95;101865.81;5070970;28;45643;-82
2022/04/17 06:36:08;;;;;;;;;7.00;7.00;;;;;11.70;45.40;101891.22;5071010;28;45469;-82
2022/04/17 06:38:34;;;;;;;;;5.00;5.00;;;;;11.64;45.57;101875.13;5071217;28;45516;-82
2022/04/17 06:40:59;;;;;;;;;5.33;5.00;;;;;11.86;44.80;101916.56;5070459;28;45824;-82
2022/04/17 06:43:24;;;;;;;;;6.25;4.00;;;;;11.74;44.34;101881.72;5070928;28;45554;-82
2022/04/17 06:45:50;;;;;;;;;6.75;6.00;;;;;11.73;44.02;101870.28;5070585;28;45721;-83
2022/04/17 06:48:22;;;;;;;;;5.00;5.00;;;;;11.92;45.30;101892.25;5050866;28;45323;-83
2022/04/17 06:50:51;;;;;;;;;5.00;5.00;;;;;11.79;44.21;101869.69;5063992;28;45667;-83
2022/04/17 06:53:17;;;;;;;;;4.50;4.00;;;;;12.08;44.01;101908.88;5070718;28;45457;-84
2022/04/17 06:55:42;;;;;;;;;6.00;4.50;;;;;11.98;44.04;101877.66;5069656;28;45494;-83
2022/04/17 06:58:08;;;;;;;;;6.50;6.50;;;;;12.03;43.91;101875.25;5071246;28;45616;-82
2022/04/17 07:00:33;;;;;;;;;4.25;4.25;;;;;12.07;43.15;101871.94;5069027;28;47831;-82
2022/04/17 07:02:59;;;;;;;;;5.00;5.00;;;;;12.05;43.14;101858.66;5064578;28;45803;-83
2022/04/17 07:05:24;;;;;;;;;6.50;6.25;;;;;12.17;43.24;101874.16;5071089;28;45815;-84
2022/04/17 07:08:04;;;;;;;;;5.25;5.00;;;;;12.03;43.51;101841.88;5052838;28;45529;-82
2022/04/17 07:10:31;;;;;;;;;7.00;6.25;;;;;12.03;43.51;101833.09;5051936;28;46925;-82
2022/04/17 07:12:57;;;;;;;;;5.50;5.50;;;;;12.47;43.53;101894.84;5052903;28;45908;-83
2022/04/17 07:15:25;;;;;;;;;6.75;6.00;;;;;12.40;43.19;101881.34;5070586;28;45539;-82
2022/04/17 07:17:52;;;;;;;;;5.00;5.00;;;;;12.45;43.32;101875.38;5070840;28;45524;-83
2022/04/17 07:20:18;;;;;;;;;6.50;6.00;;;;;12.47;43.25;101868.47;5070192;28;45427;-82
2022/04/17 07:22:44;;;;;;;;;6.75;6.75;;;;;12.27;44.08;101826.28;5070405;28;45430;-83
2022/04/17 07:25:11;;;;;;;;;6.25;6.00;;;;;12.35;43.99;101843.34;5070035;28;45531;-82
2022/04/17 07:27:47;;;;;;;;;5.50;5.00;;;;;12.69;44.11;101875.59;5070620;28;45469;-82
2022/04/17 07:30:21;;;;;;;;;4.50;4.50;;;;;12.44;43.70;101834.94;5051569;28;46957;-82
2022/04/17 07:32:49;;;;;;;;;6.00;6.00;;;;;12.77;43.81;101879.47;5070275;28;45399;-82
2022/04/17 07:35:15;;;;;;;;;8.00;6.50;;;;;12.61;43.44;101847.16;5070337;28;45355;-82
2022/04/17 07:37:41;;;;;;;;;4.25;4.25;;;;;12.77;44.44;101861.00;5070258;28;45560;-83
2022/04/17 07:40:15;;;;;;;;;7.00;6.00;;;;;12.57;43.44;101817.94;5051370;28;47807;-83
2022/04/17 07:42:45;;;;;;;;;7.50;6.75;;;;;12.88;43.63;101857.09;5052231;28;45937;-83
2022/04/17 07:45:11;;;;;;;;;7.00;7.00;;;;;12.93;44.08;101862.56;5051772;28;45307;-84
2022/04/17 07:47:36;;;;;;;;;8.00;7.25;;;;;12.94;43.74;101845.88;5051611;28;45653;-83
2022/04/17 07:50:02;;;;;;;;;6.00;6.00;;;;;12.74;42.43;101806.38;5069510;28;46278;-82
2022/04/17 07:52:27;;;;;;;;;7.00;7.00;;;;;12.85;43.42;101833.19;5069594;28;45538;-83
2022/04/17 07:54:53;;;;;;;;;7.00;7.00;;;;;12.92;43.10;101832.63;5068943;28;45685;-83
2022/04/17 07:57:18;;;;;;;;;7.00;7.00;;;;;12.93;42.97;101829.16;5069619;28;45361;-83
2022/04/17 07:59:45;;;;;;;;;7.00;6.25;;;;;12.81;42.25;101789.97;5070277;28;45789;-83
2022/04/17 08:02:22;;;;;;;;;8.00;6.00;;;;;12.83;42.96;101784.75;5069544;28;45840;-83
2022/04/17 08:04:51;;;;;;;;;8.50;7.75;;;;;13.15;42.28;101831.88;5070875;28;45596;-82
2022/04/17 08:07:16;;;;;;;;;7.25;7.25;;;;;13.07;42.08;101806.88;5070174;28;45408;-84
2022/04/17 08:09:42;;;;;;;;;7.00;6.75;;;;;12.93;42.03;101772.84;5067918;28;47515;-83
2022/04/17 08:12:07;;;;;;;;;7.50;5.00;;;;;13.25;41.87;101827.91;5070063;28;45449;-83
2022/04/17 08:14:32;;;;;;;;;4.25;4.00;;;;;13.02;41.34;101765.31;5068643;28;45564;-83
2022/04/17 08:16:58;;;;;;;;;7.67;6.67;;;;;13.16;42.17;101793.19;5069902;28;45553;-82
2022/04/17 08:19:24;;;;;;;;;6.00;5.75;;;;;13.16;41.39;101786.16;5069634;28;46540;-84
2022/04/17 08:21:50;;;;;;;;;6.75;5.50;;;;;12.97;42.14;101737.84;5070079;28;45786;-82
2022/04/17 08:24:15;;;;;;;;;6.00;6.00;;;;;13.42;41.64;101807.44;5069017;28;45469;-84
2022/04/17 08:26:40;;;;;;;;;7.00;7.00;;;;;13.48;41.61;101807.69;5070161;28;45559;-82
2022/04/17 08:29:06;;;;;;;;;6.00;5.50;;;;;13.35;41.29;101785.19;5069721;28;45511;-83
2022/04/17 08:31:31;;;;;;;;;7.00;6.33;;;;;13.41;41.49;101776.63;5069621;28;45362;-83
2022/04/17 08:33:56;;;;;;;;;5.25;5.00;;;;;13.57;41.25;101791.31;5069836;28;45529;-82
2022/04/17 08:36:22;;;;;;;;;5.00;5.00;;;;;13.77;41.70;101824.69;5051400;28;45750;-82
2022/04/17 08:38:47;;;;;;;;;7.00;6.25;;;;;13.48;41.86;101767.19;5069185;28;45605;-82
2022/04/17 08:41:15;;;;;;;;;5.00;5.00;;;;;13.72;41.44;101788.38;5050864;28;45692;-85
2022/04/17 08:43:43;;;;;;;;;8.50;7.00;;;;;13.73;40.81;101785.78;5070019;28;45576;-83
2022/04/17 08:46:10;;;;;;;;;5.75;5.25;;;;;13.90;40.70;101808.47;5068982;28;45510;-83
2022/04/17 08:48:36;;;;;;;;;7.00;6.75;;;;;13.85;40.76;101794.19;5069565;28;45353;-82
2022/04/17 08:51:02;;;;;;;;;6.25;6.00;;;;;14.04;40.83;101814.28;5069623;28;45823;-83
2022/04/17 08:53:29;;;;;;;;;6.75;6.00;;;;;13.94;41.43;101791.00;5050399;28;45510;-82
2022/04/17 08:55:54;;;;;;;;;6.25;6.25;;;;;13.91;41.02;101777.66;5070034;28;46035;-84
2022/04/17 08:58:20;;;;;;;;;7.50;6.75;;;;;13.91;40.91;101767.97;5069051;28;45931;-83
2022/04/17 09:00:45;;;;;;;;;5.00;4.00;;;;;13.96;41.54;101769.91;5069269;28;45501;-83
2022/04/17 09:03:12;;;;;;;;;6.00;5.25;;;;;13.92;40.12;101760.94;5050943;28;45415;-83
2022/04/17 09:05:38;;;;;;;;;5.25;5.25;;;;;14.00;40.53;101750.66;5069664;28;45872;-83
2022/04/17 09:08:17;;;;;;;;;6.00;5.75;;;;;14.39;40.34;101812.03;5068560;28;46102;-83
2022/04/17 09:10:57;;;;;;;;;7.25;5.00;;;;;14.11;39.61;101760.78;5070217;28;45764;-83
2022/04/17 09:13:33;;;;;;;;;6.00;4.25;;;;;14.05;40.05;101741.16;5072965;28;45587;-82
2022/04/17 09:16:01;;;;;;;;;4.00;4.00;;;;;14.17;40.53;101744.22;5072719;28;45746;-83
2022/04/17 09:18:28;;;;;;;;;3.75;3.75;;;;;14.43;40.10;101783.09;5072600;28;45445;-84
2022/04/17 09:20:54;;;;;;;;;4.25;4.00;;;;;14.46;39.62;101772.63;5073214;28;45682;-82
2022/04/17 09:23:36;;;;;;;;;6.50;6.50;;;;;14.63;39.55;101798.78;5070623;28;45712;-83
2022/04/17 09:26:02;;;;;;;;;5.75;5.50;;;;;14.64;39.33;101792.66;5071405;28;45548;-82
2022/04/17 09:28:33;;;;;;;;;6.50;6.50;;;;;14.70;39.10;101785.84;5072272;28;46534;-83
2022/04/17 09:31:01;;;;;;;;;6.00;6.00;;;;;14.32;38.35;101713.03;5071954;28;45931;-83
2022/04/17 09:33:37;;;;;;;;;6.00;5.00;;;;;14.72;39.06;101785.88;5072536;28;45825;-82
2022/04/17 09:36:03;;;;;;;;;6.50;6.25;;;;;14.60;39.08;101756.38;5072726;28;45584;-83
2022/04/17 09:38:33;;;;;;;;;5.00;5.00;;;;;14.66;38.64;101752.16;5071527;28;46728;-84
2022/04/17 09:41:19;;;;;;;;;6.00;6.00;;;;;14.91;38.71;101771.53;5072552;28;45310;-82
2022/04/17 09:43:45;;;;;;;;;4.00;4.00;;;;;14.71;39.40;101737.34;5054090;28;45691;-83
2022/04/17 09:46:10;;;;;;;;;5.00;5.00;;;;;14.92;38.19;101757.44;5071746;28;45656;-83
2022/04/17 09:48:41;;;;;;;;;4.00;4.00;;;;;14.81;38.61;101733.25;5072326;28;45773;-83
2022/04/17 09:51:23;;;;;;;;;5.00;5.00;;;;;15.13;39.08;101774.03;5053991;28;46226;-84
2022/04/17 09:54:06;;;;;;;;;6.00;6.00;;;;;15.12;37.98;101759.00;5053806;28;45431;-82
2022/04/17 09:56:39;;;;;;;;;7.50;7.00;;;;;15.19;38.43;101755.69;5053839;28;45549;-84
2022/04/17 09:59:18;;;;;;;;;6.50;6.00;;;;;14.89;38.55;101686.78;5053371;28;46586;-83
2022/04/17 10:01:49;;;;;;;;;5.50;5.50;;;;;15.35;37.81;101753.53;5071792;28;45741;-83
2022/04/17 10:04:19;;;;;;;;;4.00;4.00;;;;;15.13;37.39;101701.66;5071666;28;45718;-83
2022/04/17 10:06:52;;;;;;;;;7.00;6.00;;;;;15.47;38.32;101746.88;5072193;28;45386;-84
2022/04/17 10:09:18;;;;;;;;;6.75;5.75;;;;;15.48;38.64;101735.41;5070780;28;45714;-83
2022/04/17 10:11:43;;;;;;;;;5.00;4.25;;;;;15.40;38.75;101699.84;5054228;28;45856;-84
2022/04/17 10:14:09;;;;;;;;;13.25;13.00;;;;;15.69;37.73;101734.28;5072012;28;45469;-84
2022/04/17 10:16:39;;;;;;;;;7.50;7.00;;;;;15.60;37.57;101702.19;5071931;28;45429;-83
2022/04/17 10:19:06;;;;;;;;;6.25;6.00;;;;;15.63;36.79;101686.38;5071794;28;45833;-82
2022/04/17 10:21:35;;;;;;;;;5.75;5.50;;;;;15.57;36.34;101668.56;5053156;28;45962;-83
2022/04/17 10:24:04;;;;;;;;;10.25;9.75;;;;;15.94;36.27;101720.88;5071656;28;45516;-84
2022/04/17 10:26:33;;;;;;;;;13.50;11.00;;;;;15.79;36.55;101680.69;5053107;28;45525;-84
2022/04/17 10:29:04;;;;;;;;;11.25;11.25;;;;;15.80;35.88;101668.31;5071457;28;46808;-82
2022/04/17 10:31:53;;;;;;;;;4.75;4.50;;;;;16.17;36.65;101702.97;5071226;28;46283;-84
2022/04/17 10:34:33;;;;;;;;;9.25;8.75;;;;;16.26;36.04;101702.31;5037392;28;45921;-83
2022/04/17 10:37:07;;;;;;;;;6.75;6.75;;;;;16.34;35.97;101698.09;5071542;28;45565;-83
2022/04/17 10:39:45;;;;;;;;;5.50;5.50;;;;;16.41;35.26;101694.75;5070854;28;45599;-83
2022/04/17 10:42:11;;;;;;;;;6.00;6.00;;;;;16.46;35.25;101684.28;5071146;28;45981;-83
2022/04/17 10:44:41;;;;;;;;;4.50;3.75;;;;;16.32;34.78;101646.75;5070947;28;45511;-83
2022/04/17 10:47:17;;;;;;;;;5.00;5.00;;;;;16.57;34.82;101669.50;5071346;28;45817;-85
2022/04/17 10:49:54;;;;;;;;;7.25;7.00;;;;;16.52;34.92;101649.91;5040033;28;46604;-83
2022/04/17 10:52:33;;;;;;;;;6.75;6.75;;;;;16.57;34.57;101627.03;5031890;28;46088;-83
2022/04/17 10:55:14;;;;;;;;;4.00;4.00;;;;;16.43;34.27;101589.56;5051210;28;45754;-83
2022/04/17 10:57:48;;;;;;;;;7.00;7.00;;;;;16.85;35.21;101652.53;5051114;28;45580;-83
2022/04/17 11:00:36;;;;;;;;;7.00;7.00;;;;;17.10;34.95;101664.63;5049890;28;45428;-82
2022/04/17 11:03:09;;;;;;;;;4.50;4.25;;;;;16.89;34.78;101605.69;5032885;28;45992;-83
2022/04/17 11:08:25;;;;;;;;;5.25;5.25;;;;;17.37;34.26;101661.66;5050223;28;45533;-83
2022/04/17 11:11:02;;;;;;;;;4.75;4.75;;;;;17.25;34.33;101613.56;5069236;28;46285;-84
2022/04/17 11:13:27;;;;;;;;;6.00;5.00;;;;;17.38;34.31;101626.22;5070915;28;46167;-82
2022/04/17 11:15:55;;;;;;;;;5.00;4.00;;;;;17.51;33.88;101638.03;5069378;28;45510;-83
2022/04/17 11:18:27;;;;;;;;;8.50;8.50;;;;;17.38;33.89;101593.44;5069151;28;45758;-85
2022/04/17 11:20:55;;;;;;;;;6.00;6.00;;;;;17.49;33.56;101595.47;5071081;28;45512;-84
2022/04/17 11:23:48;;;;;;;;;3.75;3.75;;;;;17.73;33.49;101613.72;5051808;28;45606;-83
2022/04/17 11:26:14;;;;;;;;;5.00;5.00;;;;;17.65;32.41;101591.34;5052296;28;45415;-84
2022/04/17 11:28:39;;;;;;;;;4.50;4.50;;;;;17.44;32.96;101538.69;5068961;28;45828;-84
2022/04/17 11:31:05;;;;;;;;;6.75;5.25;;;;;17.72;32.73;101587.94;5068079;28;45493;-82
2022/04/17 11:33:30;;;;;;;;;5.00;4.00;;;;;17.77;31.64;101578.31;5068579;28;45601;-84
2022/04/17 11:35:57;;;;;;;;;3.75;3.75;;;;;17.69;32.21;101549.78;5052283;28;45532;-84
2022/04/17 11:38:22;;;;;;;;;3.75;3.00;;;;;17.83;32.40;101566.00;5070274;28;45539;-85
2022/04/17 11:40:48;;;;;;;;;5.25;5.25;;;;;18.10;31.56;101605.50;5071020;28;45720;-84